sensor_id;sensor_type;location;lat;lon;timestamp;P1;durP1;ratioP1;P2;durP2;ratioP2
53285;SDS011;39171;45.550;12.074;2022-09-17T00:04:47;0.82;;;0.30;;
53285;SDS011;39171;45.550;12.074;2022-09-17T00:10:48;0.45;;;0.30;;
53285;SDS011;39171;45.550;12.074;2022-09-17T00:16:50;0.60;;;0.30;;
53285;SDS011;39171;45.550;12.074;2022-09-17T00:22:52;0.70;;;0.38;;
53285;SDS011;39171;45.550;12.074;2022-09-17T00:28:54;1.38;;;0.60;;
53285;SDS011;39171;45.550;12.074;2022-09-17T00:34:56;1.58;;;0.52;;
53285;SDS011;39171;45.550;12.074;2022-09-17T00:40:58;0.82;;;0.40;;
53285;SDS011;39171;45.550;12.074;2022-09-17T00:46:59;0.90;;;0.50;;
53285;SDS011;39171;45.550;12.074;2022-09-17T00:53:04;1.20;;;0.45;;
53285;SDS011;39171;45.550;12.074;2022-09-17T00:59:18;0.55;;;0.38;;
53285;SDS011;39171;45.550;12.074;2022-09-17T01:05:26;0.77;;;0.30;;
53285;SDS011;39171;45.550;12.074;2022-09-17T01:18:04;0.70;;;0.40;;
53285;SDS011;39171;45.550;12.074;2022-09-17T01:37:04;0.75;;;0.30;;
53285;SDS011;39171;45.550;12.074;2022-09-17T01:43:11;0.73;;;0.45;;
53285;SDS011;39171;45.550;12.074;2022-09-17T01:49:26;0.35;;;0.20;;
53285;SDS011;39171;45.550;12.074;2022-09-17T01:55:31;0.60;;;0.30;;
53285;SDS011;39171;45.550;12.074;2022-09-17T02:01:37;0.30;;;0.20;;
53285;SDS011;39171;45.550;12.074;2022-09-17T02:07:48;0.55;;;0.30;;
53285;SDS011;39171;45.550;12.074;2022-09-17T02:13:59;0.35;;;0.20;;
53285;SDS011;39171;45.550;12.074;2022-09-17T02:20:15;0.20;;;0.20;;
53285;SDS011;39171;45.550;12.074;2022-09-17T02:26:18;0.32;;;0.30;;
53285;SDS011;39171;45.550;12.074;2022-09-17T02:32:22;0.47;;;0.20;;
53285;SDS011;39171;45.550;12.074;2022-09-17T02:38:25;0.28;;;0.20;;
53285;SDS011;39171;45.550;12.074;2022-09-17T02:51:19;0.32;;;0.20;;
53285;SDS011;39171;45.550;12.074;2022-09-17T02:57:29;0.65;;;0.25;;
53285;SDS011;39171;45.550;12.074;2022-09-17T03:03:43;0.40;;;0.22;;
53285;SDS011;39171;45.550;12.074;2022-09-17T03:09:46;0.30;;;0.28;;
53285;SDS011;39171;45.550;12.074;2022-09-17T03:15:48;0.43;;;0.30;;
53285;SDS011;39171;45.550;12.074;2022-09-17T03:21:50;0.55;;;0.30;;
53285;SDS011;39171;45.550;12.074;2022-09-17T03:27:51;0.20;;;0.20;;
53285;SDS011;39171;45.550;12.074;2022-09-17T03:33:53;0.43;;;0.30;;
53285;SDS011;39171;45.550;12.074;2022-09-17T03:39:54;0.20;;;0.20;;
53285;SDS011;39171;45.550;12.074;2022-09-17T03:45:55;0.20;;;0.20;;
53285;SDS011;39171;45.550;12.074;2022-09-17T03:51:57;0.38;;;0.28;;
53285;SDS011;39171;45.550;12.074;2022-09-17T03:57:58;0.40;;;0.20;;
53285;SDS011;39171;45.550;12.074;2022-09-17T04:04:02;0.30;;;0.25;;
53285;SDS011;39171;45.550;12.074;2022-09-17T04:10:04;0.32;;;0.20;;
53285;SDS011;39171;45.550;12.074;2022-09-17T04:16:06;0.50;;;0.30;;
53285;SDS011;39171;45.550;12.074;2022-09-17T04:22:08;1.13;;;0.20;;
53285;SDS011;39171;45.550;12.074;2022-09-17T04:28:09;0.30;;;0.30;;
53285;SDS011;39171;45.550;12.074;2022-09-17T04:34:11;0.38;;;0.22;;
53285;SDS011;39171;45.550;12.074;2022-09-17T04:40:12;0.20;;;0.20;;
53285;SDS011;39171;45.550;12.074;2022-09-17T04:46:14;0.43;;;0.30;;
53285;SDS011;39171;45.550;12.074;2022-09-17T04:52:17;0.45;;;0.40;;
53285;SDS011;39171;45.550;12.074;2022-09-17T04:58:18;0.55;;;0.30;;
53285;SDS011;39171;45.550;12.074;2022-09-17T05:04:19;0.85;;;0.40;;
53285;SDS011;39171;45.550;12.074;2022-09-17T05:10:22;0.40;;;0.30;;
53285;SDS011;39171;45.550;12.074;2022-09-17T05:16:23;0.20;;;0.20;;
53285;SDS011;39171;45.550;12.074;2022-09-17T05:22:25;0.50;;;0.40;;
53285;SDS011;39171;45.550;12.074;2022-09-17T05:28:27;0.50;;;0.30;;
53285;SDS011;39171;45.550;12.074;2022-09-17T05:34:28;0.38;;;0.25;;
53285;SDS011;39171;45.550;12.074;2022-09-17T05:40:30;0.60;;;0.30;;
53285;SDS011;39171;45.550;12.074;2022-09-17T05:46:34;0.70;;;0.40;;
53285;SDS011;39171;45.550;12.074;2022-09-17T05:52:36;0.30;;;0.25;;
53285;SDS011;39171;45.550;12.074;2022-09-17T05:58:37;0.20;;;0.20;;
53285;SDS011;39171;45.550;12.074;2022-09-17T06:04:38;0.93;;;0.40;;
53285;SDS011;39171;45.550;12.074;2022-09-17T06:10:40;0.70;;;0.30;;
53285;SDS011;39171;45.550;12.074;2022-09-17T06:16:41;0.40;;;0.30;;
53285;SDS011;39171;45.550;12.074;2022-09-17T06:22:43;0.55;;;0.38;;
53285;SDS011;39171;45.550;12.074;2022-09-17T06:28:44;0.85;;;0.50;;
53285;SDS011;39171;45.550;12.074;2022-09-17T06:34:46;0.75;;;0.35;;
53285;SDS011;39171;45.550;12.074;2022-09-17T06:40:51;0.80;;;0.30;;
53285;SDS011;39171;45.550;12.074;2022-09-17T06:46:53;0.68;;;0.38;;
53285;SDS011;39171;45.550;12.074;2022-09-17T06:52:54;1.13;;;0.50;;
53285;SDS011;39171;45.550;12.074;2022-09-17T06:58:55;1.45;;;0.40;;
53285;SDS011;39171;45.550;12.074;2022-09-17T07:04:57;0.90;;;0.45;;
53285;SDS011;39171;45.550;12.074;2022-09-17T07:11:00;0.90;;;0.30;;
53285;SDS011;39171;45.550;12.074;2022-09-17T07:17:02;0.77;;;0.40;;
53285;SDS011;39171;45.550;12.074;2022-09-17T07:23:04;0.60;;;0.38;;
53285;SDS011;39171;45.550;12.074;2022-09-17T07:29:05;0.93;;;0.47;;
53285;SDS011;39171;45.550;12.074;2022-09-17T07:35:08;0.82;;;0.47;;
53285;SDS011;39171;45.550;12.074;2022-09-17T07:41:10;0.82;;;0.52;;
53285;SDS011;39171;45.550;12.074;2022-09-17T07:47:13;1.13;;;0.55;;
53285;SDS011;39171;45.550;12.074;2022-09-17T07:53:14;1.10;;;0.60;;
53285;SDS011;39171;45.550;12.074;2022-09-17T07:59:16;0.70;;;0.60;;
53285;SDS011;39171;45.550;12.074;2022-09-17T08:05:17;0.63;;;0.50;;
53285;SDS011;39171;45.550;12.074;2022-09-17T08:11:20;1.50;;;0.70;;
53285;SDS011;39171;45.550;12.074;2022-09-17T08:17:24;0.98;;;0.60;;
53285;SDS011;39171;45.550;12.074;2022-09-17T08:23:26;1.70;;;0.70;;
53285;SDS011;39171;45.550;12.074;2022-09-17T08:29:28;1.15;;;0.73;;
53285;SDS011;39171;45.550;12.074;2022-09-17T08:35:30;1.02;;;0.65;;
53285;SDS011;39171;45.550;12.074;2022-09-17T08:47:49;0.73;;;0.52;;
53285;SDS011;39171;45.550;12.074;2022-09-17T08:53:55;1.40;;;0.80;;
53285;SDS011;39171;45.550;12.074;2022-09-17T09:00:18;0.65;;;0.45;;
53285;SDS011;39171;45.550;12.074;2022-09-17T09:06:22;0.98;;;0.57;;
53285;SDS011;39171;45.550;12.074;2022-09-17T09:12:31;1.10;;;0.60;;
53285;SDS011;39171;45.550;12.074;2022-09-17T09:18:35;1.02;;;0.50;;
53285;SDS011;39171;45.550;12.074;2022-09-17T09:24:41;1.50;;;0.75;;
53285;SDS011;39171;45.550;12.074;2022-09-17T09:37:32;1.35;;;0.88;;
53285;SDS011;39171;45.550;12.074;2022-09-17T09:43:42;0.60;;;0.40;;
53285;SDS011;39171;45.550;12.074;2022-09-17T10:02:19;1.02;;;0.50;;
53285;SDS011;39171;45.550;12.074;2022-09-17T10:08:20;0.70;;;0.40;;
53285;SDS011;39171;45.550;12.074;2022-09-17T10:14:23;0.65;;;0.32;;
53285;SDS011;39171;45.550;12.074;2022-09-17T10:20:26;0.68;;;0.38;;
53285;SDS011;39171;45.550;12.074;2022-09-17T10:26:29;0.55;;;0.30;;
53285;SDS011;39171;45.550;12.074;2022-09-17T10:32:33;0.45;;;0.30;;
53285;SDS011;39171;45.550;12.074;2022-09-17T10:38:39;0.90;;;0.47;;
53285;SDS011;39171;45.550;12.074;2022-09-17T10:44:55;0.60;;;0.30;;
53285;SDS011;39171;45.550;12.074;2022-09-17T10:50:57;0.30;;;0.30;;
53285;SDS011;39171;45.550;12.074;2022-09-17T10:57:01;0.60;;;0.30;;
53285;SDS011;39171;45.550;12.074;2022-09-17T11:09:54;0.60;;;0.40;;
53285;SDS011;39171;45.550;12.074;2022-09-17T11:16:14;0.40;;;0.25;;
53285;SDS011;39171;45.550;12.074;2022-09-17T11:29:24;0.65;;;0.32;;
53285;SDS011;39171;45.550;12.074;2022-09-17T11:35:36;0.40;;;0.30;;
53285;SDS011;39171;45.550;12.074;2022-09-17T11:41:43;0.43;;;0.30;;
53285;SDS011;39171;45.550;12.074;2022-09-17T11:47:54;0.63;;;0.38;;
53285;SDS011;39171;45.550;12.074;2022-09-17T12:00:20;0.40;;;0.30;;
53285;SDS011;39171;45.550;12.074;2022-09-17T12:06:30;0.30;;;0.20;;
53285;SDS011;39171;45.550;12.074;2022-09-17T12:25:41;0.85;;;0.40;;
53285;SDS011;39171;45.550;12.074;2022-09-17T12:44:44;0.60;;;0.50;;
53285;SDS011;39171;45.550;12.074;2022-09-17T12:57:12;0.50;;;0.40;;
53285;SDS011;39171;45.550;12.074;2022-09-17T13:09:45;0.50;;;0.30;;
53285;SDS011;39171;45.550;12.074;2022-09-17T13:22:20;0.63;;;0.43;;
53285;SDS011;39171;45.550;12.074;2022-09-17T13:28:36;0.40;;;0.30;;
53285;SDS011;39171;45.550;12.074;2022-09-17T13:34:48;0.30;;;0.20;;
53285;SDS011;39171;45.550;12.074;2022-09-17T13:40:50;0.20;;;0.20;;
53285;SDS011;39171;45.550;12.074;2022-09-17T13:46:51;0.30;;;0.30;;
53285;SDS011;39171;45.550;12.074;2022-09-17T13:52:57;0.35;;;0.20;;
53285;SDS011;39171;45.550;12.074;2022-09-17T13:59:31;0.52;;;0.30;;
53285;SDS011;39171;45.550;12.074;2022-09-17T14:05:35;0.30;;;0.20;;
53285;SDS011;39171;45.550;12.074;2022-09-17T14:11:37;0.20;;;0.20;;
53285;SDS011;39171;45.550;12.074;2022-09-17T14:17:50;0.30;;;0.28;;
53285;SDS011;39171;45.550;12.074;2022-09-17T14:23:59;0.20;;;0.20;;
53285;SDS011;39171;45.550;12.074;2022-09-17T14:36:23;0.40;;;0.20;;
53285;SDS011;39171;45.550;12.074;2022-09-17T14:42:27;0.25;;;0.20;;
53285;SDS011;39171;45.550;12.074;2022-09-17T14:48:35;0.43;;;0.30;;
53285;SDS011;39171;45.550;12.074;2022-09-17T14:54:39;0.32;;;0.20;;
53285;SDS011;39171;45.550;12.074;2022-09-17T15:00:49;0.40;;;0.30;;
53285;SDS011;39171;45.550;12.074;2022-09-17T15:07:04;0.30;;;0.30;;
53285;SDS011;39171;45.550;12.074;2022-09-17T15:13:12;0.50;;;0.30;;
53285;SDS011;39171;45.550;12.074;2022-09-17T15:31:36;0.47;;;0.28;;
53285;SDS011;39171;45.550;12.074;2022-09-17T15:37:44;0.60;;;0.40;;
53285;SDS011;39171;45.550;12.074;2022-09-17T15:43:46;0.50;;;0.30;;
53285;SDS011;39171;45.550;12.074;2022-09-17T15:56:18;0.30;;;0.25;;
53285;SDS011;39171;45.550;12.074;2022-09-17T16:02:27;0.73;;;0.30;;
53285;SDS011;39171;45.550;12.074;2022-09-17T16:08:33;0.73;;;0.35;;
53285;SDS011;39171;45.550;12.074;2022-09-17T16:14:35;0.40;;;0.30;;
53285;SDS011;39171;45.550;12.074;2022-09-17T16:20:36;0.50;;;0.30;;
53285;SDS011;39171;45.550;12.074;2022-09-17T16:26:37;1.13;;;0.50;;
53285;SDS011;39171;45.550;12.074;2022-09-17T16:32:40;0.70;;;0.38;;
53285;SDS011;39171;45.550;12.074;2022-09-17T16:38:41;0.98;;;0.45;;
53285;SDS011;39171;45.550;12.074;2022-09-17T16:44:42;0.65;;;0.50;;
53285;SDS011;39171;45.550;12.074;2022-09-17T16:50:44;0.77;;;0.40;;
53285;SDS011;39171;45.550;12.074;2022-09-17T16:56:45;0.60;;;0.40;;
53285;SDS011;39171;45.550;12.074;2022-09-17T17:02:51;1.20;;;0.40;;
53285;SDS011;39171;45.550;12.074;2022-09-17T17:08:56;0.70;;;0.55;;
53285;SDS011;39171;45.550;12.074;2022-09-17T17:15:00;0.63;;;0.40;;
53285;SDS011;39171;45.550;12.074;2022-09-17T17:21:06;1.40;;;0.50;;
53285;SDS011;39171;45.550;12.074;2022-09-17T17:27:08;0.93;;;0.50;;
53285;SDS011;39171;45.550;12.074;2022-09-17T17:33:09;0.80;;;0.47;;
53285;SDS011;39171;45.550;12.074;2022-09-17T17:39:11;0.80;;;0.40;;
53285;SDS011;39171;45.550;12.074;2022-09-17T17:45:13;1.15;;;0.68;;
53285;SDS011;39171;45.550;12.074;2022-09-17T17:51:21;1.05;;;0.50;;
53285;SDS011;39171;45.550;12.074;2022-09-17T17:57:23;0.63;;;0.60;;
53285;SDS011;39171;45.550;12.074;2022-09-17T18:03:25;0.88;;;0.60;;
53285;SDS011;39171;45.550;12.074;2022-09-17T18:09:26;1.25;;;0.60;;
53285;SDS011;39171;45.550;12.074;2022-09-17T18:15:28;2.58;;;1.17;;
53285;SDS011;39171;45.550;12.074;2022-09-17T18:21:29;1.48;;;1.00;;
53285;SDS011;39171;45.550;12.074;2022-09-17T18:27:30;1.58;;;0.95;;
53285;SDS011;39171;45.550;12.074;2022-09-17T18:33:32;1.50;;;0.98;;
53285;SDS011;39171;45.550;12.074;2022-09-17T18:39:37;1.90;;;1.30;;
53285;SDS011;39171;45.550;12.074;2022-09-17T18:45:38;1.40;;;0.90;;
53285;SDS011;39171;45.550;12.074;2022-09-17T18:51:40;1.70;;;1.10;;
53285;SDS011;39171;45.550;12.074;2022-09-17T18:57:41;1.63;;;1.00;;
53285;SDS011;39171;45.550;12.074;2022-09-17T19:03:43;1.30;;;1.00;;
53285;SDS011;39171;45.550;12.074;2022-09-17T19:09:44;2.28;;;1.00;;
53285;SDS011;39171;45.550;12.074;2022-09-17T19:15:46;2.25;;;1.10;;
53285;SDS011;39171;45.550;12.074;2022-09-17T19:21:48;1.50;;;1.00;;
53285;SDS011;39171;45.550;12.074;2022-09-17T19:27:50;1.75;;;1.10;;
53285;SDS011;39171;45.550;12.074;2022-09-17T19:33:55;2.20;;;1.30;;
53285;SDS011;39171;45.550;12.074;2022-09-17T19:39:58;2.40;;;1.17;;
53285;SDS011;39171;45.550;12.074;2022-09-17T19:46:07;3.08;;;1.65;;
53285;SDS011;39171;45.550;12.074;2022-09-17T19:52:12;2.08;;;1.20;;
53285;SDS011;39171;45.550;12.074;2022-09-17T19:58:13;2.47;;;1.20;;
53285;SDS011;39171;45.550;12.074;2022-09-17T20:04:15;1.73;;;0.95;;
53285;SDS011;39171;45.550;12.074;2022-09-17T20:10:19;1.95;;;1.20;;
53285;SDS011;39171;45.550;12.074;2022-09-17T20:16:21;1.65;;;1.27;;
53285;SDS011;39171;45.550;12.074;2022-09-17T20:22:23;2.10;;;1.20;;
53285;SDS011;39171;45.550;12.074;2022-09-17T20:28:24;1.67;;;1.10;;
53285;SDS011;39171;45.550;12.074;2022-09-17T20:34:25;1.58;;;1.00;;
53285;SDS011;39171;45.550;12.074;2022-09-17T20:40:27;1.65;;;1.10;;
53285;SDS011;39171;45.550;12.074;2022-09-17T20:46:29;1.65;;;0.80;;
53285;SDS011;39171;45.550;12.074;2022-09-17T20:52:31;1.52;;;0.90;;
53285;SDS011;39171;45.550;12.074;2022-09-17T20:58:34;1.33;;;0.77;;
53285;SDS011;39171;45.550;12.074;2022-09-17T21:04:36;1.60;;;0.80;;
53285;SDS011;39171;45.550;12.074;2022-09-17T21:10:41;1.30;;;0.50;;
53285;SDS011;39171;45.550;12.074;2022-09-17T21:16:43;0.80;;;0.50;;
53285;SDS011;39171;45.550;12.074;2022-09-17T21:22:45;1.10;;;0.50;;
53285;SDS011;39171;45.550;12.074;2022-09-17T21:28:48;1.15;;;0.60;;
53285;SDS011;39171;45.550;12.074;2022-09-17T21:34:50;0.90;;;0.60;;
53285;SDS011;39171;45.550;12.074;2022-09-17T21:40:55;1.05;;;0.60;;
53285;SDS011;39171;45.550;12.074;2022-09-17T21:47:03;0.98;;;0.70;;
53285;SDS011;39171;45.550;12.074;2022-09-17T21:53:05;0.63;;;0.50;;
53285;SDS011;39171;45.550;12.074;2022-09-17T21:59:07;1.00;;;0.70;;
53285;SDS011;39171;45.550;12.074;2022-09-17T22:05:11;1.58;;;0.90;;
53285;SDS011;39171;45.550;12.074;2022-09-17T22:17:25;2.38;;;1.50;;
53285;SDS011;39171;45.550;12.074;2022-09-17T22:23:27;1.90;;;1.30;;
53285;SDS011;39171;45.550;12.074;2022-09-17T22:29:28;2.88;;;1.70;;
53285;SDS011;39171;45.550;12.074;2022-09-17T22:35:31;2.10;;;1.50;;
53285;SDS011;39171;45.550;12.074;2022-09-17T22:41:33;4.18;;;2.65;;
53285;SDS011;39171;45.550;12.074;2022-09-17T22:47:38;4.40;;;2.60;;
53285;SDS011;39171;45.550;12.074;2022-09-17T22:53:40;3.28;;;2.30;;
53285;SDS011;39171;45.550;12.074;2022-09-17T22:59:42;2.67;;;1.63;;
53285;SDS011;39171;45.550;12.074;2022-09-17T23:05:44;1.98;;;1.42;;
53285;SDS011;39171;45.550;12.074;2022-09-17T23:11:45;2.83;;;1.20;;
53285;SDS011;39171;45.550;12.074;2022-09-17T23:17:47;1.83;;;1.20;;
53285;SDS011;39171;45.550;12.074;2022-09-17T23:23:48;2.53;;;1.20;;
53285;SDS011;39171;45.550;12.074;2022-09-17T23:29:50;1.95;;;1.20;;
53285;SDS011;39171;45.550;12.074;2022-09-17T23:35:52;2.95;;;1.33;;
53285;SDS011;39171;45.550;12.074;2022-09-17T23:41:53;2.05;;;1.25;;
53285;SDS011;39171;45.550;12.074;2022-09-17T23:47:58;3.00;;;1.40;;
53285;SDS011;39171;45.550;12.074;2022-09-17T23:54:00;3.15;;;2.10;;
